Aviation Digital Data Service (ADDS)

Output produced by METARs form (1617 UTC 25 April 2018)
found at http://aviationweather.gov/adds/metars/
 
KSAV 251553Z 27016G20KT 10SM FEW035 24/12 A2986 RMK AO2 SLP112 T02440122